Iron Belt, Wisconsin
Current Conditions -  °F | °C
As of 10:55 PM on Friday 24 Oct 2014 (Local Time) from KIWD Reporting Station
Clear Clear  
Wind Chill: 55°   Ceiling: Unl
Heat Index: 55°   Visibility: 10mi
Dew Point: 52°   Wind: 14mph
Humidity: 88%   Direction: 230°SW
Pressure: 29.73"   Gusts: 21mph
Location:  46.4°N, 90.32°W
Report Text: KIWD 250355Z AUTO 23012G18KT 10SM CLR 13/11 A2973 RMK AO1
Loading
Personal Weather Stations






























Interactive Weather Map
Tropical Storm Tracking
New forecast layout! Learn more

10-Day Weather Forecast

Advertisements
Track Severe Weather on mobile